Terminal Aerodrome Forecast
Issued by NWS

Home | Current Version | Previous Version | Graphics & Text | Print | Product List | Glossary On
Versions: 1 2 3 4 5 6 7 8 9 10 11 12 13 14 15 16 17 18 19 20
327
FTUS43 KFGF 241124
TAFBJI
TAF
KBJI 241124Z 2412/2512 35006KT 5SM BR OVC004
      TEMPO 2412/2414 3SM BR
     FM241500 36008KT P6SM BKN008
     FM241900 01007KT P6SM SCT015
     FM250100 VRB06KT P6SM FEW025=

USA.gov is the U.S. government's official web portal to all federal, state and local government web resources and services.